• Join FlightAware (Why Join?)
  • Login
  • US Flag 
12:24AM EDT


 

Airport Tracker/Info


-or-


 

Live Flight TrackerFlight Track Log ✈ N1229C ✈ 05-May-2012 ✈ PAKW - PAKT / KTN

Flight Track Log - Related Links

Times and Time Zones

All times are in EDT time to prevent confusion due to time zone crossing. See the N1229C flight status page for this flight to view local times or setup timezone preferences in your user account.

Time Position Orientation Groundspeed Altitude Reporting Facility
EDT Latitude Longitude Course Direction KTS MPH feet Rate Location/Type
04:43PM 55.5667 -133.0833 229° Southwest 100 115 500  Level Anchorage Center
04:44PM 55.5500 -133.1167 270° West 110 127 2,100 1,560 Climbing Anchorage Center
04:45PM 55.5500 -133.1500 49° Northeast 140 161 3,700 1,620 Climbing Anchorage Center
04:46PM 55.5667 -133.1167 66° East 130 150 5,400 1,380 Climbing Anchorage Center
04:47PM 55.5833 -133.0500 48° Northeast 160 184 6,600 720 Climbing Anchorage Center
04:48PM 55.6167 -132.9833 29° Northeast 180 207 6,900 120 Climbing Anchorage Center
04:50PM 55.6667 -132.9333 66° East 170 196 6,900  Level Anchorage Center
04:51PM 55.6833 -132.8667 90° East 160 184 7,000  Climbing Anchorage Center
04:52PM 55.6833 -132.7833 109° East 160 184 7,000 -60 Level Anchorage Center
04:53PM 55.6667 -132.7000 90° East 160 184 6,900  Descending Anchorage Center
04:54PM 55.6667 -132.6333 109° East 160 184 7,000  Climbing Anchorage Center
04:55PM 55.6500 -132.5500 90° East 160 184 7,000  Level Anchorage Center
04:56PM 55.6500 -132.4667 90° East 160 184 7,000 -60 Level Anchorage Center
04:57PM 55.6500 -132.3833 114° Southeast 160 184 6,900 -60 Descending Anchorage Center
04:58PM 55.6333 -132.3167 90° East 160 184 6,900  Level Anchorage Center
04:59PM 55.6333 -132.2333 109° East 160 184 7,000 -60 Climbing Anchorage Center
05:00PM 55.6167 -132.1500 151° Southeast 160 184 6,800 -300 Descending Anchorage Center
05:01PM 55.5833 -132.1167 140° Southeast 150 173 6,400 -600 Descending Anchorage Center
05:02PM 55.5500 -132.0667 120° Southeast 140 161 5,700 -720 Descending Anchorage Center
05:03PM 55.5333 -132.0167 140° Southeast 140 161 5,000 -720 Descending Anchorage Center
05:04PM 55.5000 -131.9667 131° Southeast 140 161 4,300 -780 Descending Anchorage Center
05:05PM 55.4667 -131.9000 140° Southeast 140 161 3,200 -840 Descending Anchorage Center
05:06PM 55.4333 -131.8500 131° Southeast 130 150 2,400 -720 Descending Anchorage Center
05:07PM 55.4167 -131.8167 140° Southeast 130 150 1,800 -720 Descending Anchorage Center
05:08PM 55.3833 -131.7667 131° Southeast 110 127 1,000 -720 Descending Anchorage Center
05:09PM 55.3667 -131.7333 135° Southeast 100 115 400 -600 Descending Anchorage Center
05:17PM 55.1515 -131.3583 316° Northwest  Level Estimated
05:18PM 55.3500 -131.7000 303° West  Level FlightAware Approximate
05:19PM 55.3702 -131.7557 123° Southeast  Level Estimated
05:20PM 55.3500 -131.7000 303° West  Level FlightAware Approximate
05:21PM 55.3702 -131.7557 123° Southeast  Level Estimated
05:22PM 55.3500 -131.7000 123° Southeast  Level FlightAware Approximate